Terminal Aerodrome Forecast
Issued by NWS Twin Cities, MN

Home | Current Version | Previous Version | Text Only | Print | Product List | Glossary Off
Versions: 1 2 3 4 5 6 7 8 9 10 11 12 13 14 15 16 17 18 19 20 21 22 23 24 25 26 27 28

003
FTUS43 KMPX 260300 AAA
TAFMSP
TAF AMD
KMSP 260300Z 2603/2706 06010KT P6SM OVC015
     FM260500 04007KT 5SM -RA BR OVC009
     FM260900 03007KT 3SM -RADZ BR SCT003 OVC005
     FM261800 03006KT 6SM BR OVC012
     FM270000 35005KT P6SM OVC018=

USA.gov is the U.S. government's official web portal to all federal, state and local government web resources and services.